createdAt,value
2022-08-26T00:00:30.025Z,92.19
2022-08-26T00:01:29.839Z,92.19
2022-08-26T00:02:30.059Z,92.19
2022-08-26T00:03:29.602Z,92.09
2022-08-26T00:04:29.618Z,91.99
2022-08-26T00:05:29.571Z,92.09
2022-08-26T00:06:29.542Z,92.09
2022-08-26T00:07:29.552Z,92.09
2022-08-26T00:08:29.512Z,92.09
2022-08-26T00:09:29.536Z,92.09
2022-08-26T00:10:29.481Z,91.99
2022-08-26T00:11:29.469Z,91.99
2022-08-26T00:12:37.344Z,91.89
2022-08-26T00:13:30.488Z,91.99
2022-08-26T00:14:31.012Z,91.99
2022-08-26T00:15:29.479Z,92.03
2022-08-26T00:16:29.444Z,91.93
2022-08-26T00:17:29.420Z,91.93
2022-08-26T00:18:29.399Z,91.93
2022-08-26T00:19:29.372Z,91.93
2022-08-26T00:20:29.365Z,92.13
2022-08-26T00:21:29.502Z,92.23
2022-08-26T00:22:29.990Z,92.23
2022-08-26T00:23:29.399Z,92.33
2022-08-26T00:24:29.338Z,92.23
2022-08-26T00:25:29.301Z,92.13
2022-08-26T00:26:29.327Z,92.09
2022-08-26T00:27:29.623Z,91.99
2022-08-26T00:28:29.272Z,91.78
2022-08-26T00:29:29.298Z,91.69
2022-08-26T00:30:29.630Z,91.89
2022-08-26T00:31:31.213Z,91.89
2022-08-26T00:32:29.209Z,91.89
2022-08-26T00:33:29.218Z,91.78
2022-08-26T00:34:29.219Z,91.89
2022-08-26T00:35:29.187Z,91.83
2022-08-26T00:36:29.775Z,91.83
2022-08-26T00:37:29.178Z,91.83
2022-08-26T00:38:29.159Z,92.03
2022-08-26T00:39:29.168Z,92.13
2022-08-26T00:40:29.450Z,92.23
2022-08-26T00:41:29.339Z,92.23
2022-08-26T00:42:29.355Z,92.23
2022-08-26T00:43:29.409Z,92.33
2022-08-26T00:44:29.067Z,92.33
2022-08-26T00:45:29.095Z,92.23
2022-08-26T00:46:29.033Z,92.63
2022-08-26T00:47:31.002Z,93.18
2022-08-26T00:48:31.911Z,93.29
2022-08-26T00:49:29.555Z,93.49
2022-08-26T00:50:29.006Z,93.29
2022-08-26T00:51:30.022Z,93.24
2022-08-26T00:52:28.967Z,93.18
2022-08-26T00:53:29.298Z,93.08
2022-08-26T00:54:28.959Z,93.08
2022-08-26T00:55:38.037Z,93.08
2022-08-26T00:56:29.916Z,93.08
2022-08-26T00:57:29.621Z,93.08
2022-08-26T00:58:29.336Z,93.08
2022-08-26T00:59:28.865Z,92.98
2022-08-26T01:00:28.941Z,93.29
2022-08-26T01:01:28.880Z,93.38
2022-08-26T01:02:28.954Z,93.49
2022-08-26T01:03:28.855Z,93.49
2022-08-26T01:04:28.815Z,93.38
2022-08-26T01:05:29.751Z,93.49
2022-08-26T01:06:28.773Z,93.49
2022-08-26T01:07:30.209Z,93.73
2022-08-26T01:08:29.196Z,93.73
2022-08-26T01:09:28.724Z,93.73
2022-08-26T01:10:28.725Z,94.13
2022-08-26T01:11:28.723Z,94.54
2022-08-26T01:12:28.695Z,94.64
2022-08-26T01:13:29.114Z,94.84
2022-08-26T01:14:28.664Z,94.74
2022-08-26T01:15:28.681Z,95.04
2022-08-26T01:16:28.702Z,95.25
2022-08-26T01:17:28.664Z,95.25
2022-08-26T01:18:28.903Z,94.94
2022-08-26T01:19:28.612Z,94.64
2022-08-26T01:20:28.622Z,94.64
2022-08-26T01:21:28.615Z,94.49
2022-08-26T01:22:28.705Z,94.49
2022-08-26T01:23:28.550Z,94.44
2022-08-26T01:24:28.944Z,94.44
2022-08-26T01:25:28.529Z,94.54
2022-08-26T01:26:28.541Z,94.64
2022-08-26T01:27:28.515Z,94.84
2022-08-26T01:28:28.771Z,94.84
2022-08-26T01:29:28.583Z,94.84
2022-08-26T01:30:28.484Z,94.54
2022-08-26T01:31:28.504Z,94.44
2022-08-26T01:32:28.482Z,94.04
2022-08-26T01:33:28.451Z,93.93
2022-08-26T01:34:28.853Z,94.24
2022-08-26T01:35:28.390Z,94.44
2022-08-26T01:36:28.371Z,94.59
2022-08-26T01:37:28.371Z,94.59
2022-08-26T01:38:28.670Z,94.79
2022-08-26T01:39:28.350Z,94.89
2022-08-26T01:40:28.450Z,95.09
2022-08-26T01:41:29.170Z,95.29
2022-08-26T01:42:28.523Z,95.29
2022-08-26T01:43:28.298Z,95.39
2022-08-26T01:44:28.726Z,95.49
2022-08-26T01:45:28.324Z,95.39
2022-08-26T01:46:28.288Z,95.49
2022-08-26T01:47:28.222Z,95.70
2022-08-26T01:48:28.212Z,95.79
2022-08-26T01:49:36.189Z,95.79
2022-08-26T01:50:35.634Z,95.90
2022-08-26T01:51:35.480Z,96.00
2022-08-26T01:52:35.802Z,95.90
2022-08-26T01:53:28.165Z,95.90
2022-08-26T01:54:28.796Z,95.70
2022-08-26T01:55:33.432Z,95.90
2022-08-26T01:56:33.131Z,96.04
2022-08-26T01:57:29.231Z,96.04
2022-08-26T01:58:28.097Z,96.14
2022-08-26T01:59:28.455Z,95.94
2022-08-26T02:00:28.143Z,95.74
2022-08-26T02:01:29.086Z,95.74
2022-08-26T02:02:28.056Z,96.14
2022-08-26T02:03:28.043Z,96.34
2022-08-26T02:04:28.637Z,96.65
2022-08-26T02:05:28.011Z,96.75
2022-08-26T02:06:28.024Z,96.75
2022-08-26T02:07:28.013Z,96.59
2022-08-26T02:08:27.974Z,96.49
2022-08-26T02:09:28.373Z,96.80
2022-08-26T02:10:28.033Z,96.29
2022-08-26T02:11:27.943Z,95.98
2022-08-26T02:12:27.947Z,96.29
2022-08-26T02:13:27.903Z,96.49
2022-08-26T02:14:28.267Z,96.59
2022-08-26T02:15:28.293Z,96.49
2022-08-26T02:16:27.966Z,96.39
2022-08-26T02:17:27.877Z,96.49
2022-08-26T02:18:27.813Z,96.59
2022-08-26T02:19:27.894Z,96.69
2022-08-26T02:20:28.253Z,96.80
2022-08-26T02:21:27.822Z,96.80
2022-08-26T02:22:27.802Z,97.00
2022-08-26T02:23:27.752Z,96.89
2022-08-26T02:24:27.887Z,97.20
2022-08-26T02:25:28.121Z,97.40
2022-08-26T02:26:27.740Z,97.30
2022-08-26T02:27:28.255Z,97.40
2022-08-26T02:28:27.698Z,97.50
2022-08-26T02:29:27.681Z,97.91
2022-08-26T02:30:28.181Z,97.50
2022-08-26T02:31:27.711Z,97.10
2022-08-26T02:32:27.660Z,97.20
2022-08-26T02:33:27.628Z,97.71
2022-08-26T02:34:31.025Z,97.60
2022-08-26T02:35:27.610Z,97.55
2022-08-26T02:36:28.663Z,97.45
2022-08-26T02:37:27.590Z,97.65
2022-08-26T02:38:27.562Z,97.55
2022-08-26T02:39:27.578Z,97.75
2022-08-26T02:40:28.030Z,97.75
2022-08-26T02:41:27.516Z,98.16
2022-08-26T02:42:27.525Z,98.25
2022-08-26T02:43:31.361Z,98.25
2022-08-26T02:44:27.483Z,98.46
2022-08-26T02:45:27.815Z,98.56
2022-08-26T02:46:30.071Z,98.66
2022-08-26T02:47:28.917Z,98.76
2022-08-26T02:48:27.425Z,98.66
2022-08-26T02:49:27.417Z,98.56
2022-08-26T02:50:27.808Z,98.56
2022-08-26T02:51:27.414Z,98.46
2022-08-26T02:52:27.398Z,98.36
2022-08-26T02:53:27.389Z,98.36
2022-08-26T02:54:27.357Z,98.46
2022-08-26T02:55:27.778Z,98.36
2022-08-26T02:56:27.329Z,98.36
2022-08-26T02:57:27.321Z,98.36
2022-08-26T02:58:27.346Z,98.56
2022-08-26T02:59:27.286Z,98.76
2022-08-26T03:00:27.747Z,98.96
2022-08-26T03:01:27.441Z,98.86
2022-08-26T03:02:27.363Z,98.96
2022-08-26T03:03:27.256Z,98.96
2022-08-26T03:04:27.212Z,99.07
2022-08-26T03:05:27.609Z,98.96
2022-08-26T03:06:27.204Z,98.86
2022-08-26T03:07:27.205Z,98.76
2022-08-26T03:08:27.185Z,98.56
2022-08-26T03:09:27.146Z,98.46
2022-08-26T03:10:27.608Z,98.25
2022-08-26T03:11:32.259Z,98.25
2022-08-26T03:12:28.134Z,98.05
2022-08-26T03:13:27.144Z,97.85
2022-08-26T03:14:27.088Z,97.96
2022-08-26T03:15:27.561Z,97.85
2022-08-26T03:16:32.207Z,98.00
2022-08-26T03:17:28.057Z,98.10
2022-08-26T03:18:27.054Z,98.10
2022-08-26T03:19:27.030Z,98.20
2022-08-26T03:20:27.015Z,98.30
2022-08-26T03:21:27.363Z,98.50
2022-08-26T03:22:27.119Z,98.96
2022-08-26T03:23:26.962Z,99.26
2022-08-26T03:24:28.171Z,99.56
2022-08-26T03:25:26.954Z,99.77
2022-08-26T03:26:27.345Z,99.66
2022-08-26T03:27:26.912Z,99.36
2022-08-26T03:28:27.230Z,99.16
2022-08-26T03:29:26.875Z,98.96
2022-08-26T03:30:27.881Z,99.05
2022-08-26T03:31:27.660Z,99.26
2022-08-26T03:32:26.948Z,99.36
2022-08-26T03:33:26.842Z,99.46
2022-08-26T03:34:26.799Z,99.66
2022-08-26T03:35:26.821Z,99.77
2022-08-26T03:36:27.230Z,99.99
2022-08-26T03:37:26.791Z,99.99
2022-08-26T03:38:26.760Z,99.99
2022-08-26T03:39:26.761Z,99.99
2022-08-26T03:40:29.095Z,99.99
2022-08-26T03:41:27.159Z,99.99
2022-08-26T03:42:26.727Z,99.99
2022-08-26T03:43:26.726Z,99.99
2022-08-26T03:44:26.677Z,99.99
2022-08-26T03:45:26.680Z,99.99
2022-08-26T03:46:27.166Z,99.99
2022-08-26T03:47:26.680Z,99.99
2022-08-26T03:48:26.639Z,99.99
2022-08-26T03:49:28.863Z,99.99
2022-08-26T03:50:26.609Z,99.99
2022-08-26T03:51:26.949Z,99.99
2022-08-26T03:52:26.591Z,99.99
2022-08-26T03:53:26.606Z,99.99
2022-08-26T03:54:26.587Z,99.99
2022-08-26T03:55:26.539Z,99.99
2022-08-26T03:56:26.928Z,99.99
2022-08-26T03:57:26.526Z,99.99
2022-08-26T03:58:26.489Z,99.99
2022-08-26T03:59:26.471Z,99.99
2022-08-26T04:00:26.497Z,99.99
2022-08-26T04:01:26.494Z,99.99
2022-08-26T04:02:29.119Z,99.97
2022-08-26T04:03:26.490Z,99.97
2022-08-26T04:04:26.426Z,99.87
2022-08-26T04:05:26.427Z,99.87
2022-08-26T04:06:26.395Z,99.87
2022-08-26T04:07:26.815Z,99.87
2022-08-26T04:08:26.374Z,99.97
2022-08-26T04:09:26.366Z,99.97
2022-08-26T04:10:26.433Z,99.99
2022-08-26T04:11:26.346Z,99.99
2022-08-26T04:12:26.869Z,99.99
2022-08-26T04:13:26.293Z,99.99
2022-08-26T04:14:26.272Z,99.99
2022-08-26T04:15:26.269Z,99.99
2022-08-26T04:16:26.750Z,99.99
2022-08-26T04:17:26.236Z,99.99
2022-08-26T04:18:28.484Z,99.99
2022-08-26T04:19:27.244Z,99.99
2022-08-26T04:20:26.193Z,99.99
2022-08-26T04:21:26.518Z,99.99
2022-08-26T04:22:26.193Z,99.99
2022-08-26T04:23:26.144Z,99.99
2022-08-26T04:24:26.152Z,99.99
2022-08-26T04:25:26.135Z,99.99
2022-08-26T04:26:26.182Z,99.99
2022-08-26T04:27:26.455Z,99.99
2022-08-26T04:28:26.121Z,99.99
2022-08-26T04:29:26.093Z,99.99
2022-08-26T04:30:26.083Z,99.99
2022-08-26T04:31:26.190Z,99.99
2022-08-26T04:32:26.420Z,99.99
2022-08-26T04:33:32.408Z,99.99
2022-08-26T04:34:28.480Z,99.99
2022-08-26T04:35:26.308Z,99.99
2022-08-26T04:36:25.996Z,99.99
2022-08-26T04:37:26.409Z,99.99
2022-08-26T04:38:25.951Z,99.99
2022-08-26T04:39:27.883Z,99.99
2022-08-26T04:40:25.997Z,99.99
2022-08-26T04:41:25.941Z,99.99
2022-08-26T04:42:27.339Z,99.99
2022-08-26T04:43:25.901Z,99.99
2022-08-26T04:44:27.070Z,99.99
2022-08-26T04:45:25.929Z,99.99
2022-08-26T04:46:25.944Z,99.99
2022-08-26T04:47:30.405Z,99.99
2022-08-26T04:48:26.827Z,99.99
2022-08-26T04:49:26.067Z,99.99
2022-08-26T04:50:25.834Z,99.99
2022-08-26T04:51:25.788Z,99.99
2022-08-26T04:52:26.203Z,99.99
2022-08-26T04:53:25.746Z,99.99
2022-08-26T04:54:25.749Z,99.99
2022-08-26T04:55:38.629Z,99.99
2022-08-26T04:56:26.714Z,99.99
2022-08-26T04:57:25.708Z,99.99
2022-08-26T04:58:26.123Z,99.99
2022-08-26T04:59:25.720Z,99.99
2022-08-26T05:00:25.888Z,99.99
2022-08-26T05:01:26.304Z,99.99
2022-08-26T05:02:26.288Z,99.99
2022-08-26T05:03:27.380Z,99.99
2022-08-26T05:04:25.644Z,99.99
2022-08-26T05:05:25.595Z,99.99
2022-08-26T05:06:25.587Z,99.99
2022-08-26T05:07:25.596Z,99.99
2022-08-26T05:08:26.208Z,99.98
2022-08-26T05:09:25.537Z,99.67
2022-08-26T05:10:25.556Z,99.47
2022-08-26T05:11:25.521Z,99.16
2022-08-26T05:12:25.503Z,98.86
2022-08-26T05:13:25.825Z,98.61
2022-08-26T05:14:25.515Z,98.41
2022-08-26T05:15:25.456Z,98.11
2022-08-26T05:16:25.493Z,97.80
2022-08-26T05:17:25.452Z,97.50
2022-08-26T05:18:25.843Z,97.45
2022-08-26T05:19:25.441Z,96.95
2022-08-26T05:20:26.064Z,97.05
2022-08-26T05:21:25.416Z,97.05
2022-08-26T05:22:25.368Z,96.91
2022-08-26T05:23:25.754Z,96.60
2022-08-26T05:24:25.358Z,96.00
2022-08-26T05:25:25.372Z,95.49
2022-08-26T05:26:25.733Z,95.29
2022-08-26T05:27:25.314Z,95.04
2022-08-26T05:28:25.754Z,94.84
2022-08-26T05:29:25.294Z,94.64
2022-08-26T05:30:25.285Z,94.64
2022-08-26T05:31:25.303Z,94.34
2022-08-26T05:32:25.245Z,93.93
2022-08-26T05:33:25.703Z,93.89
2022-08-26T05:34:25.834Z,93.79
2022-08-26T05:35:26.233Z,93.29
2022-08-26T05:36:26.875Z,92.98
2022-08-26T05:37:25.166Z,92.78
2022-08-26T05:38:25.493Z,92.54
2022-08-26T05:39:25.143Z,92.54
2022-08-26T05:40:25.243Z,92.83
2022-08-26T05:41:25.162Z,92.83
2022-08-26T05:42:25.154Z,92.83
2022-08-26T05:43:25.107Z,92.19
2022-08-26T05:44:25.521Z,91.69
2022-08-26T05:45:25.084Z,91.89
2022-08-26T05:46:25.113Z,91.69
2022-08-26T05:47:25.079Z,91.99
2022-08-26T05:48:25.056Z,91.99
2022-08-26T05:49:26.316Z,91.78
2022-08-26T05:50:25.004Z,91.58
2022-08-26T05:51:26.101Z,91.38
2022-08-26T05:52:26.072Z,91.58
2022-08-26T05:53:26.090Z,91.38
2022-08-26T05:54:25.382Z,90.78
2022-08-26T05:55:24.942Z,90.94
2022-08-26T05:56:24.961Z,90.73
2022-08-26T05:57:24.949Z,90.53
2022-08-26T05:58:24.892Z,89.32
2022-08-26T05:59:25.290Z,88.98
2022-08-26T06:00:24.900Z,89.08
2022-08-26T06:01:24.948Z,88.88
2022-08-26T06:02:24.890Z,87.93
2022-08-26T06:03:24.846Z,87.63
2022-08-26T06:04:27.070Z,87.63
2022-08-26T06:05:24.848Z,87.63
2022-08-26T06:06:27.576Z,87.23
2022-08-26T06:07:24.808Z,87.02
2022-08-26T06:08:24.777Z,86.68
2022-08-26T06:09:25.261Z,86.48
2022-08-26T06:10:32.478Z,86.48
2022-08-26T06:11:26.018Z,86.48
2022-08-26T06:12:24.735Z,86.34
2022-08-26T06:13:24.715Z,85.94
2022-08-26T06:14:24.703Z,85.74
2022-08-26T06:15:25.152Z,85.50
2022-08-26T06:16:24.704Z,84.39
2022-08-26T06:17:24.687Z,84.69
2022-08-26T06:18:24.639Z,84.80
2022-08-26T06:19:24.649Z,84.59
2022-08-26T06:20:24.988Z,84.49
2022-08-26T06:21:24.608Z,83.95
2022-08-26T06:22:24.598Z,83.55
2022-08-26T06:23:24.625Z,83.15
2022-08-26T06:24:27.023Z,82.51
2022-08-26T06:25:25.011Z,82.90
2022-08-26T06:26:24.538Z,82.51
2022-08-26T06:27:25.315Z,81.76
2022-08-26T06:28:24.538Z,81.26
2022-08-26T06:29:24.856Z,81.06
2022-08-26T06:30:24.890Z,80.56
2022-08-26T06:31:24.508Z,80.42
2022-08-26T06:32:24.473Z,79.88
2022-08-26T06:33:24.464Z,79.28
2022-08-26T06:34:29.856Z,78.14
2022-08-26T06:35:25.768Z,77.84
2022-08-26T06:36:24.417Z,77.50
2022-08-26T06:37:24.396Z,76.37
2022-08-26T06:38:24.375Z,76.13
2022-08-26T06:39:24.407Z,75.13
2022-08-26T06:40:24.921Z,75.05
2022-08-26T06:41:25.197Z,73.82
2022-08-26T06:42:24.335Z,72.89
2022-08-26T06:43:24.334Z,72.35
2022-08-26T06:44:24.296Z,70.86
2022-08-26T06:45:24.806Z,70.72
2022-08-26T06:46:24.353Z,70.09
2022-08-26T06:47:24.267Z,69.29
2022-08-26T06:48:24.257Z,70.26
2022-08-26T06:49:27.223Z,69.06
2022-08-26T06:50:24.254Z,69.56
2022-08-26T06:51:24.672Z,69.32
2022-08-26T06:52:24.610Z,69.02
2022-08-26T06:53:24.204Z,68.83
2022-08-26T06:54:24.183Z,68.30
2022-08-26T06:55:27.060Z,67.70
2022-08-26T06:56:24.586Z,67.97
2022-08-26T06:57:24.154Z,67.37
2022-08-26T06:58:24.136Z,66.97
2022-08-26T06:59:24.115Z,66.97
2022-08-26T07:00:24.108Z,66.57
2022-08-26T07:01:24.574Z,67.27
2022-08-26T07:02:24.140Z,66.47
2022-08-26T07:03:24.075Z,66.14
2022-08-26T07:04:24.066Z,66.44
2022-08-26T07:05:24.060Z,66.44
2022-08-26T07:06:24.365Z,65.48
2022-08-26T07:07:24.055Z,64.43
2022-08-26T07:08:23.996Z,63.40
2022-08-26T07:09:24.006Z,61.86
2022-08-26T07:10:24.406Z,61.36
2022-08-26T07:11:23.966Z,61.76
2022-08-26T07:12:23.955Z,60.94
2022-08-26T07:13:30.711Z,60.02
2022-08-26T07:14:24.923Z,59.52
2022-08-26T07:15:27.112Z,58.90
2022-08-26T07:16:25.325Z,58.97
2022-08-26T07:17:24.983Z,58.37
2022-08-26T07:18:23.856Z,58.37
2022-08-26T07:19:27.574Z,57.75
2022-08-26T07:20:24.853Z,57.88
2022-08-26T07:21:24.167Z,58.20
2022-08-26T07:22:23.816Z,58.47
2022-08-26T07:23:23.805Z,58.07
2022-08-26T07:24:23.783Z,58.05
2022-08-26T07:25:23.786Z,57.46
2022-08-26T07:26:24.933Z,57.06
2022-08-26T07:27:23.754Z,56.76
2022-08-26T07:28:23.744Z,56.96
2022-08-26T07:29:24.463Z,57.53
2022-08-26T07:30:23.716Z,56.54
2022-08-26T07:31:24.443Z,56.41
2022-08-26T07:32:23.707Z,55.99
2022-08-26T07:33:23.669Z,55.47
2022-08-26T07:34:23.701Z,54.65
2022-08-26T07:35:23.669Z,54.93
2022-08-26T07:36:23.957Z,54.72
2022-08-26T07:37:23.626Z,54.13
2022-08-26T07:38:23.626Z,54.03
2022-08-26T07:39:23.606Z,52.92
2022-08-26T07:40:23.653Z,52.61
2022-08-26T07:41:24.002Z,52.73
2022-08-26T07:42:23.597Z,53.12
2022-08-26T07:43:23.564Z,53.74
2022-08-26T07:44:23.637Z,53.81
2022-08-26T07:45:23.566Z,53.00
2022-08-26T07:46:27.486Z,53.00
2022-08-26T07:47:26.237Z,52.21
2022-08-26T07:48:23.598Z,52.31
2022-08-26T07:49:30.699Z,52.40
2022-08-26T07:50:23.815Z,52.68
2022-08-26T07:51:25.010Z,53.00
2022-08-26T07:52:26.643Z,52.70
2022-08-26T07:53:24.164Z,53.78
2022-08-26T07:54:26.661Z,52.75
2022-08-26T07:55:23.458Z,52.36
2022-08-26T07:56:23.845Z,51.05
2022-08-26T07:57:24.238Z,51.25
2022-08-26T07:58:23.414Z,52.55
2022-08-26T07:59:23.368Z,52.75
2022-08-26T08:00:23.387Z,52.36
2022-08-26T08:01:23.970Z,51.74
2022-08-26T08:02:23.371Z,51.12
2022-08-26T08:03:23.360Z,50.42
2022-08-26T08:04:26.509Z,50.19
2022-08-26T08:05:23.405Z,50.32
2022-08-26T08:06:27.249Z,51.03
2022-08-26T08:07:38.628Z,52.03
2022-08-26T08:08:27.682Z,51.74
2022-08-26T08:09:24.268Z,52.21
2022-08-26T08:10:25.148Z,51.72
2022-08-26T08:11:23.599Z,50.81
2022-08-26T08:12:23.206Z,51.00
2022-08-26T08:13:23.588Z,51.17
2022-08-26T08:14:23.218Z,49.99
2022-08-26T08:15:23.185Z,50.51
2022-08-26T08:16:23.633Z,50.59
2022-08-26T08:17:23.156Z,50.27
2022-08-26T08:18:23.138Z,49.08
2022-08-26T08:19:23.839Z,50.29
2022-08-26T08:20:23.167Z,50.81
2022-08-26T08:21:23.787Z,50.93
2022-08-26T08:22:23.855Z,51.05
2022-08-26T08:23:23.112Z,52.26
2022-08-26T08:24:23.077Z,52.38
2022-08-26T08:25:23.099Z,53.07
2022-08-26T08:26:23.047Z,52.68
2022-08-26T08:27:24.267Z,51.79
2022-08-26T08:28:23.027Z,51.99
2022-08-26T08:29:23.031Z,51.86
2022-08-26T08:30:23.314Z,52.58
2022-08-26T08:31:45.131Z,53.39
2022-08-26T08:32:24.331Z,53.19
2022-08-26T08:33:22.979Z,53.00
2022-08-26T08:34:22.949Z,53.71
2022-08-26T08:35:22.967Z,53.78
2022-08-26T08:36:22.928Z,54.08
2022-08-26T08:37:23.360Z,52.92
2022-08-26T08:38:22.939Z,53.25
2022-08-26T08:39:22.880Z,53.86
2022-08-26T08:40:22.921Z,55.66
2022-08-26T08:41:22.878Z,55.27
2022-08-26T08:42:23.623Z,55.07
2022-08-26T08:43:23.288Z,56.29
2022-08-26T08:45:22.818Z,56.38
2022-08-26T08:46:22.815Z,56.38
2022-08-26T08:47:22.978Z,55.99
2022-08-26T08:48:28.045Z,56.48
2022-08-26T08:49:23.771Z,55.79
2022-08-26T08:50:22.759Z,54.88
2022-08-26T08:51:22.768Z,55.18
2022-08-26T08:52:23.101Z,56.29
2022-08-26T08:53:22.750Z,56.02
2022-08-26T08:54:22.707Z,55.92
2022-08-26T08:55:22.690Z,57.33
2022-08-26T08:56:22.721Z,57.79
2022-08-26T08:57:22.680Z,56.88
2022-08-26T08:58:23.099Z,54.41
2022-08-26T08:59:22.680Z,55.30
2022-08-26T09:00:30.302Z,56.58
2022-08-26T09:01:23.691Z,55.40
2022-08-26T09:02:22.699Z,55.79
2022-08-26T09:03:23.049Z,54.41
2022-08-26T09:04:22.587Z,55.40
2022-08-26T09:05:22.570Z,54.68
2022-08-26T09:06:22.550Z,55.47
2022-08-26T09:07:22.558Z,56.06
2022-08-26T09:08:22.887Z,56.06
2022-08-26T09:09:22.520Z,55.96
2022-08-26T09:10:22.540Z,55.57
2022-08-26T09:11:22.490Z,55.69
2022-08-26T09:12:29.192Z,56.29
2022-08-26T09:13:25.239Z,55.79
2022-08-26T09:14:22.480Z,55.99
2022-08-26T09:15:22.460Z,55.79
2022-08-26T09:16:22.509Z,55.99
2022-08-26T09:17:22.440Z,55.60
2022-08-26T09:18:22.782Z,55.77
2022-08-26T09:19:22.389Z,55.18
2022-08-26T09:20:22.402Z,55.47
2022-08-26T09:21:22.390Z,54.97
2022-08-26T09:23:22.760Z,55.99
2022-08-26T09:24:22.431Z,55.49
2022-08-26T09:25:23.322Z,56.61
2022-08-26T09:26:25.845Z,56.48
2022-08-26T09:27:23.301Z,55.89
2022-08-26T09:28:22.621Z,55.69
2022-08-26T09:29:22.286Z,55.79
2022-08-26T09:30:22.301Z,55.49
2022-08-26T09:31:22.308Z,56.02
2022-08-26T09:32:22.260Z,57.20
2022-08-26T09:33:22.682Z,57.01
2022-08-26T09:34:22.237Z,56.91
2022-08-26T09:35:22.201Z,57.18
2022-08-26T09:36:22.182Z,56.48
2022-08-26T09:37:22.173Z,56.09
2022-08-26T09:38:22.181Z,56.36
2022-08-26T09:39:22.522Z,54.97
2022-08-26T09:40:22.207Z,55.77
2022-08-26T09:41:22.111Z,55.15
2022-08-26T09:42:22.119Z,55.24
2022-08-26T09:43:23.021Z,53.89
2022-08-26T09:44:22.511Z,54.61
2022-08-26T09:45:22.050Z,55.00
2022-08-26T09:46:22.132Z,55.00
2022-08-26T09:47:22.030Z,55.10
2022-08-26T09:48:22.048Z,55.69
2022-08-26T09:49:22.389Z,54.88
2022-08-26T09:50:22.000Z,53.89
2022-08-26T09:51:23.019Z,54.51
2022-08-26T09:52:21.991Z,53.92
2022-08-26T09:53:28.734Z,54.02
2022-08-26T09:54:23.381Z,54.71
2022-08-26T09:55:22.940Z,53.94
2022-08-26T09:56:21.992Z,55.03
2022-08-26T09:57:21.951Z,54.83
2022-08-26T09:58:22.369Z,54.83
2022-08-26T09:59:21.881Z,55.33
2022-08-26T10:00:21.872Z,55.89
2022-08-26T10:01:21.933Z,56.19
2022-08-26T10:02:21.874Z,55.66
2022-08-26T10:03:21.830Z,55.64
2022-08-26T10:04:22.291Z,53.08
2022-08-26T10:05:21.830Z,52.98
2022-08-26T10:06:21.820Z,52.95
2022-08-26T10:07:21.790Z,53.54
2022-08-26T10:08:23.040Z,54.36
2022-08-26T10:09:22.218Z,54.16
2022-08-26T10:10:21.761Z,54.36
2022-08-26T10:11:21.721Z,54.16
2022-08-26T10:12:21.750Z,54.72
2022-08-26T10:13:21.703Z,53.74
2022-08-26T10:14:22.075Z,54.70
2022-08-26T10:15:22.449Z,54.40
2022-08-26T10:16:21.734Z,53.78
2022-08-26T10:17:21.657Z,53.76
2022-08-26T10:18:21.640Z,52.68
2022-08-26T10:19:22.080Z,52.19
2022-08-26T10:20:22.771Z,52.87
2022-08-26T10:21:21.698Z,53.17
2022-08-26T10:22:21.621Z,52.09
2022-08-26T10:23:21.586Z,52.58
2022-08-26T10:24:21.588Z,52.65
2022-08-26T10:25:21.992Z,52.65
2022-08-26T10:26:21.563Z,52.36
2022-08-26T10:27:21.532Z,51.86
2022-08-26T10:28:21.511Z,51.86
2022-08-26T10:29:22.133Z,51.86
2022-08-26T10:30:22.161Z,51.47
2022-08-26T10:31:21.494Z,52.28
2022-08-26T10:32:22.605Z,52.78
2022-08-26T10:33:21.473Z,52.87
2022-08-26T10:34:21.879Z,52.87
2022-08-26T10:35:21.469Z,53.93
2022-08-26T10:36:21.411Z,54.72
2022-08-26T10:37:21.382Z,52.53
2022-08-26T10:38:21.400Z,52.62
2022-08-26T10:39:21.369Z,51.54
2022-08-26T10:40:21.830Z,51.05
2022-08-26T10:41:21.361Z,51.45
2022-08-26T10:42:21.351Z,51.25
2022-08-26T10:43:21.361Z,51.57
2022-08-26T10:44:21.341Z,52.75
2022-08-26T10:45:21.779Z,53.14
2022-08-26T10:46:21.340Z,53.14
2022-08-26T10:47:21.265Z,53.44
2022-08-26T10:48:21.305Z,53.14
2022-08-26T10:49:21.251Z,53.14
2022-08-26T10:50:21.677Z,53.64
2022-08-26T10:51:21.503Z,53.34
2022-08-26T10:52:21.522Z,52.45
2022-08-26T10:53:25.303Z,52.55
2022-08-26T10:54:21.271Z,51.97
2022-08-26T10:55:21.171Z,51.37
2022-08-26T10:56:21.520Z,51.57
2022-08-26T10:57:21.167Z,52.16
2022-08-26T10:58:26.625Z,53.56
2022-08-26T10:59:22.130Z,54.13
2022-08-26T11:00:21.103Z,53.93
2022-08-26T11:01:22.798Z,53.44
2022-08-26T11:02:24.788Z,53.61
2022-08-26T11:03:22.650Z,52.62
2022-08-26T11:04:22.568Z,52.31
2022-08-26T11:05:21.053Z,51.42
2022-08-26T11:06:21.461Z,51.98
2022-08-26T11:07:21.040Z,51.79
2022-08-26T11:08:21.053Z,52.25
2022-08-26T11:09:21.026Z,52.06
2022-08-26T11:10:22.363Z,51.67
2022-08-26T11:11:20.983Z,51.54
2022-08-26T11:12:20.962Z,51.15
2022-08-26T11:13:20.961Z,51.34
2022-08-26T11:14:28.503Z,51.64
2022-08-26T11:15:24.640Z,51.45
2022-08-26T11:16:21.535Z,51.34
2022-08-26T11:17:20.892Z,52.03
2022-08-26T11:18:20.898Z,52.03
2022-08-26T11:19:20.881Z,51.62
2022-08-26T11:20:20.863Z,50.44
2022-08-26T11:21:21.297Z,51.12
2022-08-26T11:22:20.847Z,51.03
2022-08-26T11:23:20.825Z,51.62
2022-08-26T11:24:20.813Z,51.42
2022-08-26T11:25:20.803Z,50.32
2022-08-26T11:26:36.204Z,51.20
2022-08-26T11:27:21.787Z,51.07
2022-08-26T11:28:20.784Z,50.76
2022-08-26T11:29:20.762Z,49.46
2022-08-26T11:30:20.785Z,49.26
2022-08-26T11:31:21.066Z,49.36
2022-08-26T11:32:21.022Z,48.94
2022-08-26T11:33:20.694Z,49.04
2022-08-26T11:34:20.709Z,47.47
2022-08-26T11:35:20.672Z,46.37
2022-08-26T11:36:20.689Z,47.38
2022-08-26T11:37:21.011Z,46.47
2022-08-26T11:38:20.658Z,46.89
2022-08-26T11:39:20.648Z,46.47
2022-08-26T11:40:20.727Z,47.06
2022-08-26T11:41:20.699Z,46.55
2022-08-26T11:42:20.642Z,46.06
2022-08-26T11:43:20.580Z,44.87
2022-08-26T11:44:20.591Z,46.21
2022-08-26T11:45:20.602Z,46.01
2022-08-26T11:46:20.583Z,46.09
2022-08-26T11:47:20.910Z,47.46
2022-08-26T11:48:20.913Z,46.48
2022-08-26T11:49:20.502Z,46.09
2022-08-26T11:50:20.500Z,45.70
2022-08-26T11:51:20.502Z,46.04
2022-08-26T11:52:20.932Z,45.84
2022-08-26T11:53:20.823Z,46.23
2022-08-26T11:54:34.530Z,45.36
2022-08-26T11:55:23.476Z,46.72
2022-08-26T11:56:20.431Z,47.24
2022-08-26T11:57:20.437Z,47.65
2022-08-26T11:58:20.873Z,47.16
2022-08-26T11:59:20.391Z,46.57
2022-08-26T12:00:22.528Z,45.79
2022-08-26T12:01:20.398Z,45.37
2022-08-26T12:02:20.364Z,46.47
2022-08-26T12:03:20.798Z,46.77
2022-08-26T12:04:20.431Z,45.91
2022-08-26T12:05:20.322Z,47.11
2022-08-26T12:06:20.364Z,47.72
2022-08-26T12:07:23.802Z,47.94
2022-08-26T12:08:20.713Z,47.08
2022-08-26T12:09:20.313Z,47.20
2022-08-26T12:10:20.231Z,46.71
2022-08-26T12:11:20.233Z,46.12
2022-08-26T12:12:20.226Z,46.02
2022-08-26T12:13:20.607Z,45.83
2022-08-26T12:14:20.192Z,45.65
2022-08-26T12:15:20.176Z,44.69
2022-08-26T12:16:20.192Z,44.98
2022-08-26T12:17:22.537Z,45.18
2022-08-26T12:18:20.712Z,45.55
2022-08-26T12:19:21.134Z,46.02
2022-08-26T12:20:20.162Z,45.12
2022-08-26T12:21:20.183Z,46.17
2022-08-26T12:22:20.942Z,44.70
2022-08-26T12:23:20.405Z,45.09
2022-08-26T12:24:20.082Z,45.49
2022-08-26T12:25:20.098Z,45.51
2022-08-26T12:26:20.068Z,46.71
2022-08-26T12:27:20.044Z,47.10
2022-08-26T12:28:20.703Z,46.91
2022-08-26T12:29:26.940Z,45.90
2022-08-26T12:30:21.045Z,45.31
2022-08-26T12:31:20.036Z,45.39
2022-08-26T12:32:19.982Z,44.80
2022-08-26T12:33:22.999Z,45.59
2022-08-26T12:34:19.948Z,45.76
2022-08-26T12:35:19.935Z,45.27
2022-08-26T12:36:19.935Z,43.99
2022-08-26T12:37:19.948Z,44.88
2022-08-26T12:38:19.943Z,44.78
2022-08-26T12:39:20.186Z,45.49
2022-08-26T12:40:19.939Z,45.73
2022-08-26T12:41:19.864Z,46.83
2022-08-26T12:42:19.855Z,47.00
2022-08-26T12:43:19.865Z,46.22
2022-08-26T12:44:20.125Z,46.20
2022-08-26T12:45:19.856Z,46.10
2022-08-26T12:46:19.828Z,44.73
2022-08-26T12:47:20.509Z,45.24
2022-08-26T12:48:20.760Z,45.63
2022-08-26T12:49:19.783Z,46.12
2022-08-26T12:50:19.744Z,46.20
2022-08-26T12:51:19.754Z,45.61
2022-08-26T12:52:19.732Z,46.30
2022-08-26T12:53:19.755Z,45.88
2022-08-26T12:54:20.066Z,45.78